Americus, Georgia
Current Conditions -  °F | °C
As of 11:35 AM on Saturday 20 Dec 2014 (Local Time) from KACJ Reporting Station
Overcast Overcast  
Wind Chill: 46°   Ceiling: 400
Heat Index: 48°   Visibility: 7mi
Dew Point: 48°   Wind: 5mph
Humidity: 100%   Direction: 30°NNE
Pressure: 30.21"   Gusts: NA
Location:  32.07°N, 84.23°W
Report Text: KACJ 201635Z AUTO 03004KT 7SM OVC004 09/09 A3021 RMK AO2
Loading
Personal Weather Stations






























Interactive Weather Map New forecast layout! Learn more

10-Day Weather Forecast

Advertisements
Track Severe Weather on mobile